ADDS METAR Data INFO
IDs: Format: Raw Decoded Include TAF

Data at: 1922 UTC 19 Jul 2018

KRUE 191853Z AUTO VRB03KT 10SM CLR 33/24 A2986 RMK AO2 SLP103 T03330244
KRUE 191753Z AUTO VRB03KT 10SM CLR 32/25 A2987 RMK AO2 SLP106 T03220250 10328 20244 58006
KRUE 191653Z AUTO 13004KT 10SM FEW020 31/25 A2988 RMK AO2 SLP109 T03110250
KRUE 191553Z AUTO VRB03KT 10SM SCT014 29/24 A2989 RMK AO2 SLP112 T02890244
KRUE 191551Z AUTO 00000KT 10SM BKN014 28/24 A2989 RMK AO2
KRUE 191541Z AUTO 10SM BKN016 28/24 A2989 RMK AO2 T02830244
KRUE 191453Z AUTO 16003KT 10SM OVC011 27/24 A2990 RMK AO2 SLP118 T02670244 56008
KRUE 191450Z AUTO VRB03KT 10SM OVC011 27/24 A2990 RMK AO2
KRUE 191407Z AUTO VRB05KT 10SM OVC007 26/24 A2992 RMK AO2 CIG 006V011 T02610244
KRUE 191353Z AUTO 00000KT 9SM OVC006 26/24 A2992 RMK AO2 SLP123 T02610244
KRUE 191253Z AUTO 10004KT 7SM OVC005 26/24 A2993 RMK AO2 SLP126 T02560244
KRUE 191233Z AUTO VRB03KT 7SM OVC006 25/24 A2993 RMK AO2 CIG 005V010 T02500244
KRUE 191153Z AUTO 09003KT 9SM OVC007 24/24 A2992 RMK AO2 SLP123 7//// T02440244 10256 20244 53003
KRUE 191103Z AUTO 09003KT 10SM OVC009 25/24 A2991 RMK AO2 CIG 007V012 T02500244
KRUE 191053Z AUTO 09005KT 10SM BKN010 OVC013 25/24 A2991 RMK AO2 CIG 007V011 SLP120 T02500244
KRUE 191044Z AUTO 09005KT 10SM BKN010 OVC016 25/24 A2991 RMK AO2 CIG 008V013 T02500244
KRUE 191005Z AUTO VRB04KT 10SM SCT012 OVC018 25/24 A2991 RMK AO2 T02500244
KRUE 190953Z AUTO VRB03KT 10SM BKN013 OVC018 25/24 A2990 RMK AO2 SLP117 T02500244
KRUE 190944Z AUTO 11005KT 10SM OVC011 25/24 A2990 RMK AO2 T02500244
KRUE 190853Z AUTO 00000KT 10SM BKN009 OVC024 26/24 A2991 RMK AO2 SLP120 T02560244 56003
KRUE 190844Z AUTO 00000KT 10SM BKN009 OVC024 26/24 A2991 RMK AO2 T02560244
KRUE 190839Z AUTO 00000KT 10SM SCT009 SCT014 OVC024 25/24 A2991 RMK AO2 T02500244
KRUE 190753Z AUTO 00000KT 10SM OVC026 25/24 A2991 RMK AO2 SLP120 T02500244
KRUE 190653Z AUTO 00000KT 10SM OVC023 26/24 A2992 RMK AO2 SLP122 T02560239
KRUE 190553Z AUTO 00000KT 10SM OVC021 26/24 A2992 RMK AO2 SLP123 T02560239 10289 20256 403060228 50004
KRUE 190526Z AUTO 00000KT 10SM BKN025 OVC120 26/24 A2992 RMK AO2 T02610239
KRUE 190514Z AUTO 00000KT 10SM SCT026 OVC120 26/24 A2993 RMK AO2 T02610239
KRUE 190504Z AUTO 00000KT 10SM BKN025 BKN110 26/24 A2993 RMK AO2 T02610239
KRUE 190453Z AUTO VRB03KT 10SM SCT025 26/24 A2992 RMK AO2 SLP125 T02610239
KRUE 190431Z AUTO 10003KT 10SM SCT027 SCT032 26/24 A2993 RMK AO2 T02610239
KRUE 190422Z AUTO VRB03KT 10SM BKN028 BKN032 26/24 A2993 RMK AO2 T02610239
KRUE 190413Z AUTO 10003KT 10SM SCT028 26/24 A2993 RMK AO2 T02610239
KRUE 190353Z AUTO 00000KT 10SM OVC026 27/23 A2992 RMK AO2 SLP126 T02670233
KRUE 190338Z AUTO 09003KT 10SM BKN026 27/23 A2992 RMK AO2 T02670233
KRUE 190253Z AUTO 09003KT 10SM CLR 26/24 A2991 RMK AO2 SLP120 T02610239 53004
KRUE 190153Z AUTO 00000KT 10SM BKN031 27/24 A2990 RMK AO2 SLP116 T02670244
KRUE 190053Z AUTO 00000KT 10SM CLR 28/24 A2990 RMK AO2 SLP116 T02780239
KRUE 182353Z AUTO VRB04KT 10SM CLR 29/23 A2990 RMK AO2 SLP115 T02890233 10306 20267 58012
KRUE 182253Z AUTO 08004KT 10SM CLR 30/24 A2992 RMK AO2 SLP122 T03000239
KRUE 182153Z AUTO 00000KT 10SM CLR 30/23 A2992 RMK AO2 SLP123 T03000228
KRUE 182053Z AUTO 00000KT 10SM CLR 29/22 A2993 RMK AO2 SLP127 T02890222 55017
KRUE 181953Z AUTO VRB04KT 10SM FEW100 FEW120 28/23 A2992 RMK AO2 SLP125 T02780228
KRUE 181853Z AUTO 00000KT 10SM FEW120 27/23 A2998 RMK AO2 SLP143 T02670228
KRUE 181753Z AUTO 00000KT 10SM CLR 26/23 A2998 RMK AO2 SLP146 6//// T02610233 10261 20228 55003
KRUE 181653Z AUTO VRB03KT 10SM FEW005 24/23 A2998 RMK AO2 SLP145 P0001 T02440233
KRUE 181638Z AUTO VRB03KT 10SM SCT006 24/24 A2999 RMK AO2 P0001 T02440239
KRUE 181609Z AUTO 12003KT 10SM BKN006 BKN090 24/23 A2999 RMK AO2 T02390233
KRUE 181553Z AUTO VRB03KT 10SM SCT005 SCT090 23/23 A2999 RMK AO2 RAE37 SLP149 P0002 T02330233
KRUE 181548Z AUTO 00000KT 10SM FEW005 SCT095 SCT120 23/23 A2999 RMK AO2 RAE37 P0002
KRUE 181453Z AUTO 11004KT 9SM -RA SCT120 23/23 A3000 RMK AO2 LTG DSNT E AND SE RAE15B33 TSE09 SLP152 6//// T02330228 58003 PNO
KRUE 181427Z AUTO VRB04KT 10SM SCT120 23/23 A3000 RMK AO2 LTG DSNT E AND SE RAE15 TSE09 T02330228
KRUE 181415Z AUTO VRB03KT 10SM VCTS BKN120 23/23 A3001 RMK AO2 LTG DSNT NE-SE RAE15 TSE09 T02330228 PNO $
KRUE 181353Z AUTO 05010G14KT 7SM -TSRA FEW023 SCT045 BKN070 23/23 A3002 RMK AO2 LTG DSNT N-E RAB17 TSB11 SLP158 T02330228 PNO $
KRUE 181342Z AUTO 09008G16KT 2SM +TSRA BR FEW022 BKN041 OVC070 23/23 A3002 RMK AO2 LTG DSNT NW-E RAB17 TSB11 T02330228 PNO $
KRUE 181317Z AUTO 06007KT 8SM -TSRA BKN050 OVC070 24/23 A3002 RMK AO2 LTG DSNT NW-NE RAB17 TSB11 P0000 T02440233
KRUE 181253Z AUTO 31005KT 10SM VCTS OVC075 24/23 A3001 RMK AO2 LTG DSNT N AND NW SLP154 T02440233
KRUE 181153Z AUTO 00000KT 10SM BKN090 OVC110 23/23 A2998 RMK AO2 SLP146 60001 70008 T02280228 10239 20228 55001
KRUE 181053Z AUTO 00000KT 9SM FEW060 SCT110 23/23 A2998 RMK AO2 SLP142 P0001 T02330233
KRUE 180953Z AUTO 00000KT 9SM FEW070 BKN090 OVC110 23/23 A2998 RMK AO2 RAE0857 SLP144 P0000 T02330233
KRUE 180853Z AUTO 17003KT 10SM -RA FEW060 OVC100 23/23 A2999 RMK AO2 RAB42 SLP145 P0000 60000 T02330233 53001
KRUE 180753Z AUTO 00000KT 10SM OVC100 23/23 A2998 RMK AO2 SLP141 T02330233